Time;durP1;ratioP1;P1;durP2;ratioP2;P2;SDS_P1;SDS_P2;PMS_P1;PMS_P2;Temp;Humidity;BMP_temperature;BMP_pressure;BME280_temperature;BME280_humidity;BME280_pressure;Samples;Min_cycle;Max_cycle;Signal;HPM_P1;HPM_P2
2023/06/13 00:00:16;;;;;;;12.00;6.18;;;13.60;59.00;;;;;;5014164;28;20097;-79
2023/06/13 00:02:41;;;;;;;10.80;7.20;;;13.50;59.00;;;;;;5019189;28;20025;-79
2023/06/13 00:05:16;;;;;;;12.13;7.07;;;13.50;59.10;;;;;;5024221;28;20021;-79
2023/06/13 00:07:43;;;;;;;12.27;7.10;;;13.50;59.10;;;;;;5024086;28;20032;-79
2023/06/13 00:10:10;;;;;;;10.02;7.57;;;13.50;59.30;;;;;;5018548;28;20017;-78
2023/06/13 00:12:36;;;;;;;10.85;6.93;;;13.50;59.20;;;;;;5012788;28;20022;-81
2023/06/13 00:15:04;;;;;;;7.40;6.53;;;13.40;59.20;;;;;;5016829;28;20076;-79
2023/06/13 00:17:31;;;;;;;;;;;13.40;59.30;;;;;;5015278;28;20025;-78
2023/06/13 00:19:59;;;;;;;7.80;6.07;;;13.30;58.90;;;;;;5014711;28;19952;-80
2023/06/13 00:22:25;;;;;;;9.23;5.95;;;13.30;59.60;;;;;;5014776;28;20010;-79
2023/06/13 00:24:51;;;;;;;12.93;7.38;;;13.20;59.80;;;;;;5014995;28;20487;-79
2023/06/13 00:27:17;;;;;;;9.60;6.03;;;13.20;59.90;;;;;;5015691;28;20030;-79
2023/06/13 00:29:43;;;;;;;10.02;6.65;;;13.20;60.10;;;;;;5017601;28;20022;-79
2023/06/13 00:32:09;;;;;;;10.65;6.75;;;13.20;60.00;;;;;;5032518;28;20032;-79
2023/06/13 00:34:36;;;;;;;8.63;6.80;;;13.30;60.10;;;;;;5007391;28;20037;-79
2023/06/13 00:37:03;;;;;;;14.02;6.82;;;13.30;60.00;;;;;;4999116;28;20030;-79
2023/06/13 00:39:29;;;;;;;10.23;6.70;;;13.30;59.90;;;;;;5014828;28;20026;-78
2023/06/13 00:41:54;;;;;;;9.98;6.05;;;13.30;60.00;;;;;;5013660;28;20022;-79
2023/06/13 00:44:20;;;;;;;8.02;5.53;;;13.30;60.10;;;;;;5014867;28;20033;-80
2023/06/13 00:46:46;;;;;;;9.98;6.22;;;13.30;60.20;;;;;;5014978;28;20193;-80
2023/06/13 00:49:13;;;;;;;10.98;6.90;;;13.20;60.20;;;;;;5014644;28;20032;-80
2023/06/13 00:51:40;;;;;;;13.20;7.43;;;13.20;60.30;;;;;;4996815;28;20450;-79
2023/06/13 00:54:06;;;;;;;10.10;7.72;;;13.20;60.50;;;;;;5016187;28;20140;-78
2023/06/13 00:56:33;;;;;;;11.30;7.00;;;13.20;60.70;;;;;;5017849;28;20030;-78
2023/06/13 00:59:03;;;;;;;8.88;7.05;;;13.10;60.80;;;;;;5019418;28;20155;-79
2023/06/13 01:01:30;;;;;;;9.15;6.57;;;13.10;60.90;;;;;;5022070;28;20517;-79
2023/06/13 01:03:59;;;;;;;9.43;6.40;;;13.10;60.90;;;;;;5019460;28;20026;-78
2023/06/13 01:06:28;;;;;;;9.90;6.57;;;13.10;60.90;;;;;;5016066;28;20177;-78
2023/06/13 01:08:58;;;;;;;12.43;7.13;;;13.10;61.00;;;;;;5014211;28;20049;-78
2023/06/13 01:12:01;;;;;;;10.63;6.25;;;13.10;61.10;;;;;;5014181;28;20030;-78
2023/06/13 01:14:49;;;;;;;9.77;6.70;;;13.10;61.30;;;;;;5013913;28;20048;-78
2023/06/13 01:17:30;;;;;;;10.63;6.38;;;13.00;61.40;;;;;;5002431;28;20021;-79
2023/06/13 01:20:04;;;;;;;12.25;6.35;;;12.90;61.60;;;;;;4995967;28;20033;-79
2023/06/13 01:22:45;;;;;;;10.18;7.22;;;12.90;61.70;;;;;;5013787;28;20049;-78
2023/06/13 01:25:40;;;;;;;10.20;6.40;;;13.00;61.80;;;;;;5009075;28;20022;-78
2023/06/13 01:28:06;;;;;;;9.77;6.55;;;13.00;61.60;;;;;;5013486;28;20025;-80
2023/06/13 01:30:34;;;;;;;11.38;7.30;;;13.00;61.80;;;;;;5013900;28;20026;-78
2023/06/13 01:33:02;;;;;;;7.63;6.35;;;13.00;61.90;;;;;;5016811;28;20026;-78
2023/06/13 01:35:29;;;;;;;9.25;6.05;;;13.00;62.00;;;;;;5014276;28;20399;-78
2023/06/13 01:37:55;;;;;;;8.07;6.80;;;13.00;62.00;;;;;;5021535;28;20092;-79
2023/06/13 01:40:21;;;;;;;13.20;7.30;;;13.00;61.80;;;;;;5014079;28;20033;-77
2023/06/13 01:42:47;;;;;;;8.82;6.68;;;13.10;61.80;;;;;;5013487;28;20029;-79
2023/06/13 01:45:13;;;;;;;15.50;7.75;;;13.10;61.80;;;;;;5013538;28;20022;-79
2023/06/13 01:47:46;;;;;;;11.90;6.47;;;13.20;61.80;;;;;;5013283;28;20388;-79
2023/06/13 01:50:21;;;;;;;11.07;6.85;;;13.20;61.70;;;;;;5013391;28;20018;-80
2023/06/13 01:52:59;;;;;;;8.15;6.82;;;13.20;61.60;;;;;;5013051;28;20026;-77
2023/06/13 01:55:31;;;;;;;10.07;6.72;;;13.20;61.80;;;;;;5007260;28;20046;-79
2023/06/13 01:58:25;;;;;;;10.05;6.75;;;13.20;61.80;;;;;;5010119;28;20018;-78
2023/06/13 02:00:55;;;;;;;8.82;6.28;;;13.30;61.90;;;;;;4987796;28;20034;-81
2023/06/13 02:03:22;;;;;;;10.35;6.38;;;13.30;61.80;;;;;;5013917;28;20022;-80
2023/06/13 02:05:48;;;;;;;8.23;6.33;;;13.30;61.80;;;;;;5013257;28;20088;-80
2023/06/13 02:08:14;;;;;;;7.63;5.80;;;13.30;61.80;;;;;;5012907;28;20070;-79
2023/06/13 02:10:39;;;;;;;6.82;5.47;;;13.30;61.70;;;;;;5014180;28;20472;-79
2023/06/13 02:13:05;;;;;;;9.05;6.18;;;13.30;61.50;;;;;;5016037;28;20030;-79
2023/06/13 02:15:31;;;;;;;11.45;6.40;;;13.30;61.80;;;;;;4996739;28;20042;-79
2023/06/13 02:17:57;;;;;;;9.02;6.13;;;13.30;61.80;;;;;;5013283;28;20018;-79
2023/06/13 02:20:23;;;;;;;9.15;6.15;;;13.30;61.70;;;;;;5013295;28;20431;-79
2023/06/13 02:22:48;;;;;;;9.90;5.60;;;13.30;61.70;;;;;;5013008;28;20030;-80
2023/06/13 02:25:15;;;;;;;9.73;5.47;;;13.30;61.90;;;;;;5012552;28;20018;-79
2023/06/13 02:27:42;;;;;;;12.73;6.22;;;13.30;61.90;;;;;;5013019;28;20366;-80
2023/06/13 02:30:09;;;;;;;9.00;6.50;;;13.30;62.00;;;;;;5012584;28;20030;-79
2023/06/13 02:32:39;;;;;;;9.60;5.10;;;13.40;62.10;;;;;;5012504;28;20014;-80
2023/06/13 02:35:09;;;;;;;8.10;5.50;;;13.40;61.80;;;;;;5012398;28;20030;-79
2023/06/13 02:37:35;;;;;;;6.18;5.13;;;13.50;61.90;;;;;;4994860;28;20722;-78
2023/06/13 02:40:05;;;;;;;8.70;5.18;;;13.50;61.60;;;;;;5012140;28;20029;-80
2023/06/13 02:42:31;;;;;;;10.02;6.18;;;13.60;61.70;;;;;;5012291;28;20093;-79
2023/06/13 02:44:57;;;;;;;9.43;5.18;;;13.60;61.80;;;;;;4994970;28;20029;-79
2023/06/13 02:47:23;;;;;;;9.50;4.90;;;13.60;61.60;;;;;;4994885;28;20126;-79
2023/06/13 02:49:49;;;;;;;10.15;5.13;;;13.70;61.30;;;;;;5012480;28;20096;-79
2023/06/13 02:52:15;;;;;;;9.88;4.88;;;13.70;61.90;;;;;;5014764;28;20024;-79
2023/06/13 02:54:41;;;;;;;9.90;4.50;;;13.70;61.20;;;;;;5019715;28;20137;-78
2023/06/13 02:57:09;;;;;;;7.18;5.00;;;13.70;61.40;;;;;;5021691;28;20033;-79
2023/06/13 02:59:34;;;;;;;9.15;5.25;;;13.80;61.40;;;;;;5012466;28;20022;-78
2023/06/13 03:02:00;;;;;;;9.32;5.15;;;14.00;61.20;;;;;;5012549;28;20387;-79
2023/06/13 03:04:28;;;;;;;6.80;4.95;;;14.10;60.80;;;;;;5011779;28;20121;-79
2023/06/13 03:06:54;;;;;;;7.00;4.90;;;14.20;60.20;;;;;;5012115;28;20014;-79
2023/06/13 03:09:20;;;;;;;9.95;4.72;;;14.30;60.00;;;;;;5011994;28;20030;-78
2023/06/13 03:11:46;;;;;;;7.28;4.95;;;14.50;59.60;;;;;;5008581;28;20022;-79
2023/06/13 03:14:12;;;;;;;8.00;4.88;;;14.60;59.20;;;;;;5012030;28;20552;-79
2023/06/13 03:16:38;;;;;;;5.57;4.05;;;14.70;59.10;;;;;;5012498;28;20025;-79
2023/06/13 03:19:05;;;;;;;6.65;4.45;;;14.70;59.30;;;;;;5013496;28;20455;-77
2023/06/13 03:21:30;;;;;;;9.35;4.78;;;14.70;59.40;;;;;;5012403;28;20379;-79
2023/06/13 03:23:56;;;;;;;10.55;4.35;;;14.80;59.30;;;;;;4994286;28;20021;-81
2023/06/13 03:26:23;;;;;;;12.38;5.18;;;14.90;58.80;;;;;;5012250;28;20436;-79
2023/06/13 03:28:49;;;;;;;9.18;4.03;;;14.90;58.80;;;;;;5012302;28;20029;-81
2023/06/13 03:31:16;;;;;;;7.43;4.60;;;14.90;58.40;;;;;;5012583;28;20388;-79
2023/06/13 03:33:41;;;;;;;7.20;4.10;;;14.90;58.10;;;;;;5008385;28;20094;-80
2023/06/13 03:36:07;;;;;;;9.13;4.57;;;14.90;58.40;;;;;;5013181;28;20366;-79
2023/06/13 03:38:33;;;;;;;5.95;3.83;;;14.90;58.60;;;;;;5010534;28;20017;-79
2023/06/13 03:40:59;;;;;;;7.50;4.10;;;15.00;58.50;;;;;;5013302;28;20026;-79
2023/06/13 03:43:26;;;;;;;7.85;3.70;;;15.10;58.20;;;;;;5014332;28;20045;-80
2023/06/13 03:45:52;;;;;;;7.10;3.88;;;15.30;58.00;;;;;;5024838;28;20010;-79
2023/06/13 03:48:19;;;;;;;8.30;3.38;;;15.30;57.80;;;;;;5022023;28;20036;-79
2023/06/13 03:50:45;;;;;;;5.90;3.97;;;15.40;57.30;;;;;;5036177;28;20049;-81
2023/06/13 03:53:10;;;;;;;8.40;3.67;;;15.50;56.50;;;;;;5017588;28;20014;-79
2023/06/13 03:55:36;;;;;;;13.25;4.35;;;15.40;56.70;;;;;;5025162;28;20491;-80
2023/06/13 03:58:03;;;;;;;6.05;3.53;;;15.50;56.60;;;;;;5012060;28;20017;-81
2023/06/13 04:00:33;;;;;;;7.63;3.25;;;15.50;56.40;;;;;;5012351;28;20033;-80
2023/06/13 04:03:00;;;;;;;7.57;3.47;;;15.60;56.30;;;;;;5011656;28;20029;-79
2023/06/13 04:05:26;;;;;;;5.68;3.53;;;15.70;56.20;;;;;;5011825;28;20026;-81
2023/06/13 04:07:54;;;;;;;6.35;3.67;;;15.80;55.80;;;;;;5011630;28;20026;-79
2023/06/13 04:10:20;;;;;;;12.07;4.30;;;16.00;55.40;;;;;;5011519;28;20056;-80
2023/06/13 04:12:47;;;;;;;5.50;3.47;;;16.10;56.00;;;;;;5012223;28;20076;-81
2023/06/13 04:15:13;;;;;;;6.78;3.22;;;16.20;54.90;;;;;;5021514;28;20029;-79
2023/06/13 04:17:40;;;;;;;6.90;3.67;;;16.30;55.00;;;;;;5004633;28;20387;-79
2023/06/13 04:20:06;;;;;;;8.27;3.97;;;16.30;54.70;;;;;;5016137;28;20064;-80
2023/06/13 04:22:32;;;;;;;12.90;4.20;;;16.40;54.10;;;;;;5000789;28;20022;-81
2023/06/13 04:24:59;;;;;;;10.48;3.47;;;16.50;53.50;;;;;;5016274;28;20049;-80
2023/06/13 04:27:28;;;;;;;3.67;2.80;;;16.50;53.40;;;;;;5022593;28;20025;-81
2023/06/13 04:29:56;;;;;;;7.53;3.75;;;16.60;53.00;;;;;;5016696;28;20018;-81
2023/06/13 04:32:23;;;;;;;9.73;3.70;;;16.60;53.30;;;;;;5018280;28;21546;-81
2023/06/13 04:34:53;;;;;;;5.70;3.70;;;16.70;52.70;;;;;;5028109;28;20100;-80
2023/06/13 04:37:26;;;;;;;5.57;2.75;;;16.60;52.60;;;;;;5018408;28;20264;-81
2023/06/13 04:39:55;;;;;;;7.80;3.20;;;16.60;52.60;;;;;;5005935;28;20053;-81
2023/06/13 04:42:29;;;;;;;4.90;3.28;;;16.60;52.80;;;;;;5010270;28;20093;-81
2023/06/13 04:44:58;;;;;;;5.50;3.10;;;16.70;52.80;;;;;;5010606;28;20028;-81
2023/06/13 04:47:25;;;;;;;7.93;3.35;;;16.70;52.80;;;;;;5019956;28;20479;-81
2023/06/13 04:50:00;;;;;;;4.93;2.75;;;16.80;52.50;;;;;;5017098;28;20041;-79
2023/06/13 04:52:33;;;;;;;6.03;3.17;;;16.90;52.40;;;;;;5015645;28;20041;-81
2023/06/13 04:55:04;;;;;;;6.22;3.20;;;16.90;52.20;;;;;;5014973;28;20108;-82
2023/06/13 04:57:31;;;;;;;3.92;3.05;;;16.90;52.70;;;;;;5017086;28;20487;-81
2023/06/13 04:59:58;;;;;;;9.35;3.03;;;16.90;52.10;;;;;;5015914;28;20052;-80
2023/06/13 05:02:25;;;;;;;5.03;3.17;;;16.90;52.60;;;;;;5016357;28;20022;-79
2023/06/13 05:04:52;;;;;;;8.80;3.05;;;17.00;52.20;;;;;;5016923;28;20113;-81
2023/06/13 05:07:19;;;;;;;4.80;2.85;;;17.10;52.50;;;;;;5015201;28;20029;-80
2023/06/13 05:09:45;;;;;;;6.35;3.20;;;17.30;52.40;;;;;;5014740;28;20099;-80
2023/06/13 05:12:13;;;;;;;3.97;2.60;;;17.70;51.30;;;;;;5013437;28;20029;-81
2023/06/13 05:14:40;;;;;;;;;;;18.30;50.60;;;;;;5014909;28;21457;-80
2023/06/13 05:17:06;;;;;;;4.72;3.05;;;19.00;49.50;;;;;;5014142;28;19913;-80
2023/06/13 05:19:37;;;;;;;5.47;2.90;;;19.90;47.30;;;;;;5013891;28;20076;-82
2023/06/13 05:22:05;;;;;;;7.05;2.42;;;20.90;45.70;;;;;;5013481;28;20040;-83
2023/06/13 05:24:32;;;;;;;6.45;2.47;;;21.90;43.80;;;;;;5014691;28;20076;-82
2023/06/13 05:26:59;;;;;;;7.20;3.00;;;22.30;41.90;;;;;;4996271;28;20466;-81
2023/06/13 05:29:26;;;;;;;4.43;2.58;;;23.00;41.90;;;;;;5014128;28;20026;-81
2023/06/13 05:31:52;;;;;;;6.00;2.45;;;23.80;40.60;;;;;;5014929;28;20037;-82
2023/06/13 05:34:18;;;;;;;5.35;2.78;;;24.60;38.90;;;;;;5020173;28;20470;-80
2023/06/13 05:36:45;;;;;;;5.72;2.67;;;24.80;38.10;;;;;;5026033;28;20022;-80
2023/06/13 05:39:12;;;;;;;6.47;2.50;;;24.90;38.10;;;;;;5017387;28;20018;-84
2023/06/13 05:41:39;;;;;;;9.30;2.90;;;25.00;37.00;;;;;;4987537;28;20030;-79
2023/06/13 05:44:05;;;;;;;;;;;25.60;37.30;;;;;;4996737;28;20018;-81
2023/06/13 05:46:31;;;;;;;4.30;2.80;;;26.00;37.20;;;;;;5016484;28;19928;-83
2023/06/13 05:48:57;;;;;;;3.95;2.30;;;26.50;36.20;;;;;;5014329;28;20053;-79
2023/06/13 05:51:23;;;;;;;6.70;2.55;;;26.60;34.80;;;;;;5013268;28;20072;-78
2023/06/13 05:53:49;;;;;;;6.40;2.75;;;26.10;35.60;;;;;;5012957;28;20025;-79
2023/06/13 05:56:15;;;;;;;3.97;2.10;;;26.00;35.80;;;;;;5013287;28;20030;-79
2023/06/13 05:58:41;;;;;;;5.38;2.63;;;26.10;36.10;;;;;;5015756;28;20445;-79
2023/06/13 06:01:10;;;;;;;8.68;2.95;;;26.40;35.50;;;;;;5014967;28;20018;-79
2023/06/13 06:03:39;;;;;;;5.95;2.10;;;27.40;35.20;;;;;;5012883;28;20018;-80
2023/06/13 06:06:05;;;;;;;6.63;2.50;;;28.60;33.60;;;;;;5012617;28;20014;-80
2023/06/13 06:08:31;;;;;;;4.43;2.25;;;29.40;32.90;;;;;;5013234;28;20494;-80
2023/06/13 06:10:56;;;;;;;5.45;2.70;;;29.40;32.00;;;;;;5012897;28;20022;-79
2023/06/13 06:13:22;;;;;;;11.95;2.13;;;29.10;32.30;;;;;;5013203;28;20041;-80
2023/06/13 06:15:48;;;;;;;5.15;2.38;;;29.20;32.10;;;;;;5012793;28;20033;-79
2023/06/13 06:18:14;;;;;;;6.93;3.17;;;29.50;32.00;;;;;;5013842;28;20392;-80
2023/06/13 06:20:40;;;;;;;6.60;2.67;;;29.90;32.00;;;;;;5016213;28;20029;-79
2023/06/13 06:23:06;;;;;;;4.75;2.30;;;30.20;31.90;;;;;;5017178;28;20029;-80
2023/06/13 06:25:33;;;;;;;6.40;2.35;;;30.00;31.30;;;;;;5014781;28;20092;-80
2023/06/13 06:28:01;;;;;;;10.88;2.42;;;29.90;31.10;;;;;;5014746;28;20064;-81
2023/06/13 06:30:28;;;;;;;5.00;1.85;;;29.80;31.70;;;;;;5016719;28;20028;-80
2023/06/13 06:32:55;;;;;;;6.07;2.45;;;30.50;31.10;;;;;;5017445;28;20065;-80
2023/06/13 06:35:21;;;;;;;4.00;1.50;;;31.40;30.50;;;;;;5015307;28;20034;-79
2023/06/13 06:37:47;;;;;;;4.13;1.80;;;31.80;30.30;;;;;;5015374;28;20024;-79
2023/06/13 06:40:13;;;;;;;3.47;2.33;;;33.10;29.60;;;;;;5011791;28;20029;-81
2023/06/13 06:42:38;;;;;;;1.70;1.50;;;34.30;29.30;;;;;;5012222;28;20025;-80
2023/06/13 06:45:05;;;;;;;3.20;2.10;;;34.30;28.40;;;;;;5012242;28;20026;-82
2023/06/13 06:47:31;;;;;;;;;;;33.20;28.60;;;;;;5013844;28;20037;-80
2023/06/13 06:49:56;;;;;;;6.73;2.57;;;32.70;29.20;;;;;;5014751;28;19955;-80
2023/06/13 06:52:22;;;;;;;9.17;3.20;;;31.90;29.10;;;;;;5013649;28;20061;-79
2023/06/13 06:54:48;;;;;;;3.93;2.17;;;31.90;29.60;;;;;;4995326;28;20050;-80
2023/06/13 06:57:14;;;;;;;6.20;2.40;;;33.00;28.90;;;;;;5011859;28;20022;-79
2023/06/13 06:59:40;;;;;;;5.83;2.20;;;33.20;28.40;;;;;;4994804;28;20052;-79
2023/06/13 07:02:06;;;;;;;11.90;2.43;;;35.50;27.90;;;;;;4995171;28;20026;-80
2023/06/13 07:04:32;;;;;;;6.37;2.17;;;35.50;28.30;;;;;;5014104;28;20029;-80
2023/06/13 07:06:58;;;;;;;7.07;2.33;;;36.80;27.50;;;;;;4994659;28;20768;-80
2023/06/13 07:09:23;;;;;;;6.85;1.95;;;36.90;27.10;;;;;;5015158;28;20073;-80
2023/06/13 07:11:50;;;;;;;5.73;2.77;;;35.80;27.10;;;;;;5016694;28;20025;-80
2023/06/13 07:14:18;;;;;;;4.55;2.35;;;36.10;27.10;;;;;;5019491;28;20299;-80
2023/06/13 07:16:44;;;;;;;2.40;1.50;;;35.80;27.00;;;;;;5013518;28;20467;-80
2023/06/13 07:19:10;;;;;;;6.63;2.20;;;35.10;27.50;;;;;;5011962;28;20033;-81
2023/06/13 07:21:35;;;;;;;5.53;2.35;;;35.80;27.30;;;;;;5012257;28;20037;-80
2023/06/13 07:24:01;;;;;;;7.47;2.30;;;35.00;27.30;;;;;;4999070;28;20391;-80
2023/06/13 07:26:27;;;;;;;11.03;2.67;;;34.70;27.50;;;;;;5012160;28;20057;-80
2023/06/13 07:28:53;;;;;;;8.90;1.73;;;34.40;28.00;;;;;;5011736;28;20038;-81
2023/06/13 07:31:19;;;;;;;8.07;2.90;;;34.30;27.70;;;;;;4994437;28;20034;-80
2023/06/13 07:33:45;;;;;;;4.43;1.90;;;33.70;27.90;;;;;;5011967;28;20030;-81
2023/06/13 07:36:10;;;;;;;6.90;2.20;;;33.50;27.70;;;;;;5013637;28;20030;-80
2023/06/13 07:38:36;;;;;;;3.17;2.20;;;32.90;28.10;;;;;;5013345;28;20053;-81
2023/06/13 07:41:02;;;;;;;5.80;2.17;;;33.80;28.30;;;;;;5013658;28;20427;-81
2023/06/13 07:43:28;;;;;;;3.33;2.15;;;34.50;27.70;;;;;;5012118;28;20033;-80
2023/06/13 07:45:54;;;;;;;7.00;2.77;;;34.70;27.60;;;;;;4993831;28;20029;-82
2023/06/13 07:48:19;;;;;;;6.60;2.57;;;35.30;27.50;;;;;;4998434;28;20024;-81
2023/06/13 07:50:46;;;;;;;4.72;2.25;;;35.80;27.10;;;;;;4995795;28;20471;-81
2023/06/13 07:53:12;;;;;;;;;;;35.30;27.10;;;;;;4998332;28;20087;-82
2023/06/13 07:55:37;;;;;;;2.83;1.88;;;34.80;28.10;;;;;;5015043;28;20015;-81
2023/06/13 07:58:04;;;;;;;6.43;2.40;;;35.20;27.60;;;;;;5015646;28;20030;-81
2023/06/13 08:00:30;;;;;;;6.18;2.60;;;35.70;26.90;;;;;;5016171;28;20032;-83
2023/06/13 08:02:56;;;;;;;;;;;35.20;26.90;;;;;;5014604;28;20113;-81
2023/06/13 08:05:22;;;;;;;5.82;2.30;;;35.20;27.50;;;;;;4997832;28;20490;-79
2023/06/13 08:07:48;;;;;;;8.80;2.20;;;35.30;27.40;;;;;;5015328;28;20025;-81
2023/06/13 08:10:14;;;;;;;6.43;2.07;;;34.40;27.00;;;;;;5014970;28;20022;-82
2023/06/13 08:12:39;;;;;;;5.67;1.70;;;33.70;27.80;;;;;;4997795;28;20029;-81
2023/06/13 08:15:06;;;;;;;7.00;2.67;;;34.80;27.60;;;;;;5014909;28;20057;-80
2023/06/13 08:17:41;;;;;;;7.20;2.40;;;35.30;27.00;;;;;;5015264;28;20022;-81
2023/06/13 08:20:08;;;;;;;5.45;2.50;;;33.80;27.60;;;;;;5014568;28;20033;-79
2023/06/13 08:22:36;;;;;;;6.85;2.63;;;34.00;27.80;;;;;;4997943;28;20097;-81
2023/06/13 08:25:02;;;;;;;6.68;2.45;;;34.70;27.60;;;;;;5018278;28;20026;-80
2023/06/13 08:27:28;;;;;;;4.53;2.72;;;34.60;27.50;;;;;;5022086;28;20080;-81
2023/06/13 08:29:56;;;;;;;9.97;2.10;;;34.60;27.30;;;;;;5002267;28;20025;-81
2023/06/13 08:32:22;;;;;;;4.63;2.38;;;34.70;27.20;;;;;;5015383;28;20018;-81
2023/06/13 08:34:47;;;;;;;5.03;2.30;;;34.00;27.10;;;;;;5016445;28;20037;-80
2023/06/13 08:37:13;;;;;;;4.90;2.00;;;34.30;27.50;;;;;;5016362;28;20388;-82
2023/06/13 08:39:39;;;;;;;7.85;1.80;;;35.90;27.00;;;;;;5014533;28;20286;-81
2023/06/13 08:42:06;;;;;;;7.60;2.27;;;36.50;26.40;;;;;;4996854;28;20484;-81
2023/06/13 08:44:33;;;;;;;4.50;2.40;;;35.20;26.50;;;;;;5014730;28;20781;-82
2023/06/13 08:46:59;;;;;;;9.20;2.38;;;34.80;27.20;;;;;;5014852;28;20533;-80
2023/06/13 08:49:25;;;;;;;;;;;35.60;27.10;;;;;;5016302;28;20069;-80
2023/06/13 08:51:55;;;;;;;6.80;2.33;;;36.70;27.30;;;;;;5017649;28;19928;-80
2023/06/13 08:54:21;;;;;;;7.20;2.60;;;37.30;26.10;;;;;;5024436;28;20042;-80
2023/06/13 08:56:50;;;;;;;8.02;2.50;;;37.10;25.90;;;;;;5020756;28;20029;-82
2023/06/13 08:59:28;;;;;;;5.22;2.15;;;36.60;26.20;;;;;;4999027;28;20454;-81
2023/06/13 09:01:55;;;;;;;5.00;2.38;;;36.80;26.60;;;;;;4996854;28;20464;-80
2023/06/13 09:04:23;;;;;;;4.75;2.40;;;37.40;26.10;;;;;;5015012;28;20026;-82
2023/06/13 09:06:50;;;;;;;4.95;2.70;;;37.00;26.10;;;;;;5014450;28;20115;-80
2023/06/13 09:09:16;;;;;;;7.47;3.15;;;;;;;;;;4996157;28;20037;-81
2023/06/13 09:11:44;;;;;;;6.57;2.90;;;38.10;25.70;;;;;;5014577;28;20024;-82
2023/06/13 09:14:10;;;;;;;5.97;2.42;;;;;;;;;;5015116;28;20038;-81
2023/06/13 09:16:36;;;;;;;6.75;2.00;;;39.20;25.20;;;;;;5014933;28;20414;-81
2023/06/13 09:19:02;;;;;;;5.00;2.35;;;37.50;25.70;;;;;;5014411;28;20045;-80
2023/06/13 09:21:28;;;;;;;3.60;2.35;;;36.90;26.30;;;;;;4996592;28;20037;-80
2023/06/13 09:23:57;;;;;;;7.20;2.45;;;37.10;26.50;;;;;;5014587;28;20076;-81
2023/06/13 09:26:24;;;;;;;3.10;2.20;;;38.20;26.30;;;;;;5012545;28;20400;-81
2023/06/13 09:28:51;;;;;;;5.32;2.45;;;37.70;25.90;;;;;;5013951;28;20021;-79
2023/06/13 09:31:17;;;;;;;;;;;37.10;26.20;;;;;;5014094;28;20117;-81
2023/06/13 09:33:45;;;;;;;5.63;2.35;;;35.40;26.50;;;;;;5014287;28;20362;-81
2023/06/13 09:36:11;;;;;;;10.85;3.63;;;34.50;28.00;;;;;;4995516;28;20446;-82
2023/06/13 09:38:41;;;;;;;6.75;2.78;;;35.10;27.40;;;;;;5013903;28;20049;-81
2023/06/13 09:41:12;;;;;;;3.53;2.10;;;36.20;27.10;;;;;;5013644;28;20029;-81
2023/06/13 09:43:39;;;;;;;8.57;1.90;;;36.10;26.70;;;;;;5013107;28;20022;-82
2023/06/13 09:46:08;;;;;;;9.35;3.28;;;35.70;26.80;;;;;;5013300;28;20018;-81
2023/06/13 09:48:34;;;;;;;4.70;2.35;;;35.10;27.10;;;;;;4995957;28;20029;-82
2023/06/13 09:51:00;;;;;;;8.48;2.40;;;35.60;26.90;;;;;;5014049;28;20374;-83
2023/06/13 09:53:25;;;;;;;5.82;2.75;;;35.20;26.90;;;;;;5014867;28;20396;-82
2023/06/13 09:55:52;;;;;;;2.75;2.35;;;35.00;27.20;;;;;;5014949;28;20046;-81
2023/06/13 09:58:18;;;;;;;4.35;2.40;;;36.00;27.00;;;;;;5015645;28;20026;-80
2023/06/13 10:00:44;;;;;;;3.00;2.30;;;36.50;26.90;;;;;;5023257;28;20041;-80
2023/06/13 10:03:09;;;;;;;4.70;2.40;;;36.00;26.50;;;;;;5016977;28;20034;-81
2023/06/13 10:05:35;;;;;;;4.72;2.58;;;35.10;26.90;;;;;;5014073;28;20049;-81
2023/06/13 10:08:01;;;;;;;3.27;2.60;;;34.70;27.30;;;;;;4996101;28;20026;-82
2023/06/13 10:10:27;;;;;;;8.60;2.77;;;34.50;27.30;;;;;;5013202;28;20279;-82
2023/06/13 10:13:00;;;;;;;6.50;3.08;;;33.50;27.70;;;;;;5014336;28;20032;-81
2023/06/13 10:15:36;;;;;;;6.72;2.60;;;33.50;28.00;;;;;;5012195;28;20049;-82
2023/06/13 10:18:10;;;;;;;8.48;3.28;;;33.60;27.70;;;;;;5013671;28;20033;-82
2023/06/13 10:20:38;;;;;;;6.68;3.03;;;33.50;28.00;;;;;;5014526;28;20033;-81
2023/06/13 10:23:08;;;;;;;4.88;2.95;;;34.40;27.80;;;;;;5015591;28;20484;-83
2023/06/13 10:25:35;;;;;;;5.10;2.50;;;34.80;27.50;;;;;;5018006;28;20025;-81
2023/06/13 10:28:06;;;;;;;;;;;34.20;27.20;;;;;;5015114;28;20052;-81
2023/06/13 10:30:47;;;;;;;4.35;2.40;;;32.60;27.70;;;;;;5005287;28;19984;-80
2023/06/13 10:33:37;;;;;;;6.10;2.60;;;30.90;28.80;;;;;;5005990;28;20029;-80
2023/06/13 10:36:17;;;;;;;4.72;2.85;;;;;;;;;;5007396;28;20057;-80
2023/06/13 10:39:11;;;;;;;9.13;3.20;;;29.40;29.30;;;;;;5013867;28;20559;-81
2023/06/13 10:41:41;;;;;;;6.82;3.22;;;;;;;;;;4995255;28;20041;-81
2023/06/13 10:44:12;;;;;;;6.90;2.85;;;;;;;;;;5012121;28;20018;-81
2023/06/13 10:46:39;;;;;;;8.25;2.88;;;;;;;;;;5012607;28;20386;-81
2023/06/13 10:49:05;;;;;;;7.13;2.90;;;26.40;32.30;;;;;;5012793;28;20021;-80
2023/06/13 10:51:32;;;;;;;6.97;3.20;;;23.80;36.20;;;;;;4994884;28;20084;-81
2023/06/13 10:54:08;;;;;;;4.03;3.53;;;23.30;37.50;;;;;;5012780;28;20022;-81
2023/06/13 10:56:39;;;;;;;5.80;3.28;;;23.10;37.30;;;;;;5012592;28;20100;-82
2023/06/13 10:59:10;;;;;;;5.45;3.08;;;22.90;37.80;;;;;;5011396;28;20030;-80
2023/06/13 11:01:41;;;;;;;4.40;2.92;;;22.90;38.10;;;;;;5011792;28;20076;-80
2023/06/13 11:04:10;;;;;;;6.00;3.33;;;22.70;38.00;;;;;;5012044;28;20026;-80
2023/06/13 11:06:37;;;;;;;5.55;3.03;;;22.60;38.20;;;;;;5012164;28;20028;-81
2023/06/13 11:09:13;;;;;;;6.65;2.80;;;22.50;38.80;;;;;;5013015;28;20411;-81
2023/06/13 11:11:56;;;;;;;9.18;3.40;;;22.50;38.40;;;;;;5013258;28;20030;-80
2023/06/13 11:14:37;;;;;;;4.55;2.90;;;22.40;38.20;;;;;;5012499;28;20029;-81
2023/06/13 11:17:04;;;;;;;8.20;3.67;;;22.30;38.50;;;;;;5011252;28;20029;-79
2023/06/13 11:19:33;;;;;;;5.88;3.35;;;22.20;38.10;;;;;;5012401;28;20029;-79
2023/06/13 11:21:59;;;;;;;8.35;3.78;;;22.10;39.10;;;;;;5012855;28;20014;-80
2023/06/13 11:24:27;;;;;;;5.45;3.35;;;22.10;38.90;;;;;;4997474;28;20026;-81
2023/06/13 11:26:56;;;;;;;5.90;3.45;;;22.10;39.20;;;;;;5018586;28;20018;-81
2023/06/13 11:29:22;;;;;;;5.32;3.28;;;22.20;39.10;;;;;;4999536;28;20484;-81
2023/06/13 11:31:52;;;;;;;10.23;3.70;;;22.20;39.40;;;;;;5016524;28;20034;-81
2023/06/13 11:34:20;;;;;;;4.80;3.58;;;22.20;39.10;;;;;;5018596;28;20048;-81
2023/06/13 11:36:46;;;;;;;8.27;3.70;;;22.20;39.20;;;;;;5015661;28;20365;-81
2023/06/13 11:39:36;;;;;;;7.03;3.50;;;22.30;39.30;;;;;;5016019;28;20053;-81
2023/06/13 11:42:02;;;;;;;8.43;3.42;;;22.30;39.10;;;;;;4998130;28;20483;-81
2023/06/13 11:44:28;;;;;;;5.10;3.50;;;22.20;39.20;;;;;;5016157;28;20040;-81
2023/06/13 11:46:55;;;;;;;5.63;3.10;;;22.20;39.20;;;;;;5016135;28;20049;-81
2023/06/13 11:49:21;;;;;;;4.75;2.90;;;22.10;39.20;;;;;;5015651;28;20033;-80
2023/06/13 11:51:47;;;;;;;5.78;3.10;;;22.10;39.30;;;;;;5015655;28;20117;-80
2023/06/13 11:54:13;;;;;;;5.55;3.22;;;22.10;38.70;;;;;;5015936;28;20056;-81
2023/06/13 11:56:52;;;;;;;7.05;3.78;;;22.10;38.70;;;;;;4997943;28;20121;-82
2023/06/13 11:59:22;;;;;;;3.92;3.10;;;22.00;38.70;;;;;;5017798;28;20030;-80
2023/06/13 12:01:49;;;;;;;6.28;3.88;;;22.00;38.80;;;;;;5018199;28;20045;-80
2023/06/13 12:04:16;;;;;;;;;;;22.00;38.90;;;;;;5017650;28;20408;-79
2023/06/13 12:06:42;;;;;;;4.47;3.00;;;22.00;38.60;;;;;;5001286;28;19971;-81
2023/06/13 12:09:08;;;;;;;5.23;3.63;;;21.90;38.90;;;;;;5016492;28;20101;-81
2023/06/13 12:11:34;;;;;;;5.05;3.42;;;21.80;39.50;;;;;;5016365;28;20018;-80
2023/06/13 12:14:01;;;;;;;9.98;4.00;;;21.70;39.20;;;;;;5018219;28;20054;-79
2023/06/13 12:16:30;;;;;;;5.72;3.38;;;21.70;39.50;;;;;;5017547;28;20064;-81
2023/06/13 12:18:56;;;;;;;9.95;3.50;;;21.80;39.40;;;;;;5015402;28;20022;-80
2023/06/13 12:21:30;;;;;;;5.97;3.45;;;21.80;39.60;;;;;;5015243;28;20032;-81
2023/06/13 12:23:58;;;;;;;7.90;3.47;;;21.80;39.10;;;;;;4997553;28;20476;-80
2023/06/13 12:26:32;;;;;;;5.75;3.38;;;21.80;39.30;;;;;;4999416;28;20084;-81
2023/06/13 12:29:01;;;;;;;5.85;3.38;;;21.70;39.60;;;;;;5015815;28;20089;-80
2023/06/13 12:31:37;;;;;;;5.75;3.60;;;21.80;39.60;;;;;;5016409;28;20018;-80
2023/06/13 12:34:07;;;;;;;5.70;3.50;;;21.90;40.00;;;;;;5019690;28;20057;-81
2023/06/13 12:36:41;;;;;;;6.30;3.30;;;21.90;39.10;;;;;;5025012;28;20021;-80
2023/06/13 12:39:09;;;;;;;7.30;3.85;;;21.90;39.00;;;;;;5019877;28;20033;-80
2023/06/13 12:41:36;;;;;;;7.53;3.95;;;21.90;39.40;;;;;;5014643;28;20128;-80
2023/06/13 12:44:02;;;;;;;6.70;3.20;;;21.90;39.40;;;;;;4996030;28;20170;-80
2023/06/13 12:46:28;;;;;;;11.10;3.80;;;22.00;39.60;;;;;;5014254;28;20022;-81
2023/06/13 12:48:55;;;;;;;4.65;2.80;;;22.10;39.60;;;;;;4997251;28;20164;-79
2023/06/13 12:51:28;;;;;;;6.97;3.75;;;22.10;39.10;;;;;;5014707;28;20022;-80
2023/06/13 12:54:16;;;;;;;4.53;3.65;;;22.10;39.00;;;;;;5014780;28;20028;-80